Gulkana Airport
PAGK : now visible

Airfield :











YOU CAN JOIN US ON...

 
LOGIN :

Register | Disclaimer

   EN    FR    IT 

 









Legend :    VFR   Marginal VFR   IFR   Intensive IFR   Very Intensive IFR
Visi :
Ceiling :
>= 8 km
>= 3000ft
5 to 8 km
1000 to 3000 ft
1500m to 5 km
500 to 1000 ft
800 to 1500m
200 to 500 ft
< 800m
< 200 ft
Symbols :   Thunderstorms  Fog  Heavy snow  Heavy precipitations  Wind > 20 kt






- Airport Elevation : 1586 ft
- IATA code : GKN


PAGK - Gulkana

CURRENT METAR :
  • 272353Z AUTO 00000KT 10SM CLR M22/M26 A2940 RMK AO2 SLP028 60000 I6001 T12221261 11217 21239 58001 TSNO

EXPIRED METARs :
  • 272253Z AUTO 00000KT 10SM BKN044 BKN055 M22/M27 A2941 RMK AO2 SLP033 T12221267 TSNO
  • 272153Z AUTO 00000KT 9SM FEW022 BKN090 M23/M26 A2941 RMK AO2 SNE13 SLP038 P0000 I1001 T12281256 TSNO

TAF PAGK
Valid from the 28 at 00:00 until the 29 at 00:00 UTC


272322Z 2800/2824 VRB03KT 6SM -SN OVC040
TEMPO 2800/2804 3SM -SN BKN025
FM280800 14003KT P6SM VCSH OVC035



MET'MAP, your aeronautical weather chart ! - Copyright ORBIFLY December 2007 - Disclaimer

ORBIFLY MET'MAP TEAM :

Programming & Development : Alexandra Zaïnal
Concept & original design : Baudouin d'Aumeries
Assistance for programming : Marc-Olivier Méhu
Technical & hardware support : Manuel Goepfert

Contact : metmap@orbifly.com




SOURCES & CREDITS :

   NOAA       Earth
Advisory